EDT,Max TemperatureF,Mean TemperatureF,Min TemperatureF,Max Dew PointF,MeanDew PointF,Min DewpointF,Max Humidity, Mean Humidity, Min Humidity, Max Sea Level PressureIn, Mean Sea Level PressureIn, Min Sea Level PressureIn, Max VisibilityMiles, Mean VisibilityMiles, Min VisibilityMiles, Max Wind SpeedMPH, Mean Wind SpeedMPH, Max Gust SpeedMPH,PrecipitationIn, CloudCover, Events, WindDirDegrees
2013-10-1,75,58,41,56,46,39,100,83,41,29.96,29.92,29.87,10,6,0,12,3,16,0.00,1,Fog,322
2013-10-2,79,64,48,60,55,46,97,77,47,29.96,29.90,29.85,10,9,1,17,5,25,0.00,0,,276
2013-10-3,78,66,52,57,53,47,89,67,33,30.08,30.04,29.98,10,10,10,9,6,,0.00,0,,268
2013-10-4,75,62,48,60,52,46,100,83,51,30.08,30.05,30.02,10,7,0,12,2,,0.00,4,Fog,145
2013-10-5,69,60,53,59,57,52,97,86,68,30.12,30.08,30.05,10,9,2,8,3,,0.14,6,Rain,49
2013-10-6,66,57,48,61,54,46,93,80,61,30.19,30.15,30.12,10,9,2,14,5,16,0.00,6,Rain,110
2013-10-7,75,68,64,70,65,62,94,90,79,30.12,30.01,29.88,10,6,0,22,13,32,0.46,7,Fog-Rain,171
2013-10-8,68,61,54,64,50,43,94,67,40,30.33,30.11,29.91,10,9,2,16,9,24,0.07,3,Rain,342
2013-10-9,64,59,55,48,44,41,75,60,52,30.41,30.37,30.33,10,10,10,20,14,31,0.00,1,,63
2013-10-10,66,60,55,57,54,49,90,78,68,30.31,30.22,30.12,10,10,10,20,13,23,0.00,4,,59
2013-10-11,70,64,57,59,56,50,90,80,63,30.12,30.09,30.07,10,10,10,15,12,25,0.00,6,,41
2013-10-12,66,60,55,56,52,48,83,75,67,30.34,30.24,30.11,10,10,10,24,14,33,0.00,5,,62
2013-10-13,62,50,39,49,44,37,93,69,52,30.41,30.38,30.32,10,10,10,20,13,26,0.00,5,,69
2013-10-14,63,46,30,47,39,29,93,80,52,30.40,30.34,30.28,10,10,2,8,2,17,0.00,1,,51
2013-10-15,66,50,35,53,38,33,100,86,43,30.28,30.24,30.16,10,5,0,12,2,,0.00,1,Fog,51
2013-10-16,63,58,53,58,55,50,94,89,81,30.15,30.04,29.91,10,8,2,14,8,20,0.00,7,,35
2013-10-17,68,62,57,61,58,55,100,88,75,29.91,29.86,29.77,10,9,2,12,4,16,0.00,7,,241
2013-10-18,70,58,46,63,56,44,94,80,47,29.93,29.76,29.67,10,9,7,17,9,24,0.01,4,Rain,240
2013-10-19,64,52,39,56,44,36,90,68,43,30.01,29.91,29.78,10,10,10,12,5,,0.01,2,Rain,166
2013-10-20,63,48,33,58,45,30,90,71,34,30.03,29.84,29.72,10,10,10,16,7,23,0.00,3,,254
2013-10-21,66,48,32,45,38,28,89,66,34,30.13,30.08,30.04,10,10,10,13,4,20,0.00,0,,253
2013-10-22,66,52,37,54,44,36,100,80,54,30.02,29.86,29.73,10,8,0,12,2,17,0.00,2,Fog,237
2013-10-23,55,47,39,44,38,31,93,69,51,29.80,29.69,29.59,10,10,5,9,6,16,0.27,5,Rain,6
2013-10-24,54,48,44,38,31,24,73,52,34,29.91,29.81,29.65,10,10,10,15,10,31,0.00,2,,286
2013-10-25,54,46,39,34,29,26,68,51,38,30.18,30.04,29.93,10,10,10,15,9,24,0.00,1,,309
2013-10-26,57,42,28,41,33,23,88,59,42,30.18,30.08,29.90,10,10,10,22,9,38,0.00,3,,246
2013-10-27,57,52,45,40,34,29,71,49,39,30.08,29.92,29.83,10,10,10,14,10,26,0.00,4,Rain,288
2013-10-28,59,42,27,38,32,23,85,56,42,30.33,30.18,30.10,10,10,10,18,7,30,0.00,2,,298
2013-10-29,55,46,34,37,33,26,92,62,37,30.40,30.37,30.34,10,10,10,12,6,,0.00,3,,5
2013-10-30,60,45,30,46,39,28,92,77,51,30.35,30.27,30.21,10,10,9,13,3,17,0.00,5,,261
2013-10-31,64,52,39,60,50,37,100,84,65,30.25,30.14,29.89,10,10,5,18,5,28,0.00,7,,184